地図

経路データ

SID SEASON NUMBER BASIN SUBBASIN NAME ISO_TIME NATURE LAT LON WMO_WIND WMO_PRES WMO_AGENCY TRACK_TYPE DIST2LAND LANDFALL IFLAG USA_AGENCY USA_ATCF_ID USA_LAT USA_LON USA_RECORD USA_STATUS USA_WIND USA_PRES USA_SSHS USA_R34_NE USA_R34_SE USA_R34_SW USA_R34_NW USA_R50_NE USA_R50_SE USA_R50_SW USA_R50_NW USA_R64_NE USA_R64_SE USA_R64_SW USA_R64_NW USA_POCI USA_ROCI USA_RMW USA_EYE TOKYO_LAT TOKYO_LON TOKYO_GRADE TOKYO_WIND TOKYO_PRES TOKYO_R50_DIR TOKYO_R50_LONG TOKYO_R50_SHORT TOKYO_R30_DIR TOKYO_R30_LONG TOKYO_R30_SHORT TOKYO_LAND CMA_LAT CMA_LON CMA_CAT CMA_WIND CMA_PRES HKO_LAT HKO_LON HKO_CAT HKO_WIND HKO_PRES NEWDELHI_LAT NEWDELHI_LON NEWDELHI_GRADE NEWDELHI_WIND NEWDELHI_PRES NEWDELHI_CI NEWDELHI_DP NEWDELHI_POCI REUNION_LAT REUNION_LON REUNION_TYPE REUNION_WIND REUNION_PRES REUNION_TNUM REUNION_CI REUNION_RMW REUNION_R34_NE REUNION_R34_SE REUNION_R34_SW REUNION_R34_NW REUNION_R50_NE REUNION_R50_SE REUNION_R50_SW REUNION_R50_NW REUNION_R64_NE REUNION_R64_SE REUNION_R64_SW REUNION_R64_NW BOM_LAT BOM_LON BOM_TYPE BOM_WIND BOM_PRES BOM_TNUM BOM_CI BOM_RMW BOM_R34_NE BOM_R34_SE BOM_R34_SW BOM_R34_NW BOM_R50_NE BOM_R50_SE BOM_R50_SW BOM_R50_NW BOM_R64_NE BOM_R64_SE BOM_R64_SW BOM_R64_NW BOM_ROCI BOM_POCI BOM_EYE BOM_POS_METHOD BOM_PRES_METHOD NADI_LAT NADI_LON NADI_CAT NADI_WIND NADI_PRES WELLINGTON_LAT WELLINGTON_LON WELLINGTON_WIND WELLINGTON_PRES DS824_LAT DS824_LON DS824_STAGE DS824_WIND DS824_PRES TD9636_LAT TD9636_LON TD9636_STAGE TD9636_WIND TD9636_PRES TD9635_LAT TD9635_LON TD9635_WIND TD9635_PRES TD9635_ROCI NEUMANN_LAT NEUMANN_LON NEUMANN_CLASS NEUMANN_WIND NEUMANN_PRES MLC_LAT MLC_LON MLC_CLASS MLC_WIND MLC_PRES USA_GUST BOM_GUST BOM_GUST_PER REUNION_GUST REUNION_GUST_PER USA_SEAHGT USA_SEARAD_NE USA_SEARAD_SE USA_SEARAD_SW USA_SEARAD_NW STORM_SPEED STORM_DIR
1879276N15282 1879 23 NA CS NOT_NAMED 1879-10-03 00:00:00 TS 14.5000 -77.6000 40 hurdat_atl main 360 324 O_____________ hurdat_atl AL051879 14.5000 -77.6000 TS 40 0 14 313
1879276N15282 1879 23 NA CS NOT_NAMED 1879-10-03 03:00:00 TS 14.9653 -78.1095 main 317 292 P_____________ AL051879 14.9653 -78.1095 TS 40 0 13 313
1879276N15282 1879 23 NA CS NOT_NAMED 1879-10-03 06:00:00 TS 15.4000 -78.6000 40 hurdat_atl main 295 272 O_____________ hurdat_atl AL051879 15.4000 -78.6000 TS 40 0 12 312
1879276N15282 1879 23 NA CS NOT_NAMED 1879-10-03 09:00:00 TS 15.7924 -79.0579 main 278 252 P_____________ AL051879 15.7924 -79.0579 TS 40 0 12 313
1879276N15282 1879 23 NA CS NOT_NAMED 1879-10-03 12:00:00 TS 16.2000 -79.5000 40 hurdat_atl main 252 231 O_____________ hurdat_atl AL051879 16.2000 -79.5000 TS 40 0 12 316
1879276N15282 1879 23 NA CS NOT_NAMED 1879-10-03 15:00:00 TS 16.6849 -79.9427 main 231 230 P_____________ AL051879 16.6849 -79.9427 TS 40 0 13 319
1879276N15282 1879 23 NA CS NOT_NAMED 1879-10-03 18:00:00 TS 17.2000 -80.4000 40 hurdat_atl main 239 239 O_____________ hurdat_atl AL051879 17.2000 -80.4000 TS 40 0 14 318
1879276N15282 1879 23 NA CS NOT_NAMED 1879-10-03 21:00:00 TS 17.7076 -80.9150 main 270 270 P_____________ AL051879 17.7076 -80.9150 TS 40 0 14 316
1879276N15282 1879 23 NA CS NOT_NAMED 1879-10-04 00:00:00 TS 18.2000 -81.4000 40 hurdat_atl main 316 316 O_____________ hurdat_atl AL051879 18.2000 -81.4000 TS 40 0 12 320
1879276N15282 1879 23 NA CS NOT_NAMED 1879-10-04 03:00:00 TS 18.6572 -81.7580 main 319 267 P_____________ AL051879 18.6572 -81.7580 TS 40 0 11 324
1879276N15282 1879 23 NA CS NOT_NAMED 1879-10-04 06:00:00 TS 19.1000 -82.1000 40 hurdat_atl main 267 214 O_____________ hurdat_atl AL051879 19.1000 -82.1000 TS 40 0 12 321
1879276N15282 1879 23 NA CS NOT_NAMED 1879-10-04 09:00:00 TS 19.5650 -82.5350 main 203 156 P_____________ AL051879 19.5650 -82.5350 TS 40 0 12 317
1879276N15282 1879 23 NA CS NOT_NAMED 1879-10-04 12:00:00 TS 20.0000 -83.0000 40 hurdat_atl main 157 133 O_____________ hurdat_atl AL051879 20.0000 -83.0000 TS 40 0 12 312
1879276N15282 1879 23 NA CS NOT_NAMED 1879-10-04 15:00:00 TS 20.3500 -83.4653 main 142 124 P_____________ AL051879 20.3500 -83.4653 TS 40 0 11 310
1879276N15282 1879 23 NA CS NOT_NAMED 1879-10-04 18:00:00 TS 20.7000 -83.9000 40 hurdat_atl main 129 84 O_____________ hurdat_atl AL051879 20.7000 -83.9000 TS 40 0 11 317
1879276N15282 1879 23 NA CS NOT_NAMED 1879-10-04 21:00:00 TS 21.1423 -84.2577 main 80 24 P_____________ AL051879 21.1423 -84.2577 TS 40 0 11 324
1879276N15282 1879 23 NA CS NOT_NAMED 1879-10-05 00:00:00 TS 21.6000 -84.6000 40 hurdat_atl main 24 0 O_____________ hurdat_atl AL051879 21.6000 -84.6000 TS 40 0 11 321
1879276N15282 1879 23 NA GM NOT_NAMED 1879-10-05 03:00:00 TS 22.0151 -85.0150 main 11 11 P_____________ AL051879 22.0151 -85.0150 TS 40 0 11 317
1879276N15282 1879 23 NA GM NOT_NAMED 1879-10-05 06:00:00 TS 22.4000 -85.4000 40 hurdat_atl main 69 69 O_____________ hurdat_atl AL051879 22.4000 -85.4000 TS 40 0 10 321
1879276N15282 1879 23 NA GM NOT_NAMED 1879-10-05 09:00:00 TS 22.7648 -85.6728 main 123 123 P_____________ AL051879 22.7648 -85.6728 TS 40 0 8 327
1879276N15282 1879 23 NA GM NOT_NAMED 1879-10-05 12:00:00 TS 23.1000 -85.9000 40 hurdat_atl main 162 162 O_____________ hurdat_atl AL051879 23.1000 -85.9000 TS 40 0 8 325
1879276N15282 1879 23 NA GM NOT_NAMED 1879-10-05 15:00:00 TS 23.4000 -86.1502 main 208 208 P_____________ AL051879 23.4000 -86.1502 TS 40 0 8 323
1879276N15282 1879 23 NA GM NOT_NAMED 1879-10-05 18:00:00 TS 23.7000 -86.4000 40 hurdat_atl main 247 247 O_____________ hurdat_atl AL051879 23.7000 -86.4000 TS 40 0 8 325
1879276N15282 1879 23 NA GM NOT_NAMED 1879-10-05 21:00:00 TS 24.0500 -86.6500 main 281 281 P_____________ AL051879 24.0500 -86.6500 TS 45 0 8 327
1879276N15282 1879 23 NA GM NOT_NAMED 1879-10-06 00:00:00 TS 24.4000 -86.9000 50 hurdat_atl main 324 324 O_____________ hurdat_atl AL051879 24.4000 -86.9000 TS 50 0 8 325
1879276N15282 1879 23 NA GM NOT_NAMED 1879-10-06 03:00:00 TS 24.6925 -87.1503 main 357 357 P_____________ AL051879 24.6925 -87.1503 TS 50 0 8 323
1879276N15282 1879 23 NA GM NOT_NAMED 1879-10-06 06:00:00 TS 25.0000 -87.4000 50 hurdat_atl main 392 392 O_____________ hurdat_atl AL051879 25.0000 -87.4000 TS 50 0 8 327
1879276N15282 1879 23 NA GM NOT_NAMED 1879-10-06 09:00:00 TS 25.3775 -87.6501 main 425 376 P_____________ AL051879 25.3775 -87.6501 TS 50 0 9 331
1879276N15282 1879 23 NA GM NOT_NAMED 1879-10-06 12:00:00 TS 25.8000 -87.9000 50 hurdat_atl main 376 327 O_____________ hurdat_atl AL051879 25.8000 -87.9000 TS 50 0 10 332
1879276N15282 1879 23 NA GM NOT_NAMED 1879-10-06 15:00:00 TS 26.2125 -88.1504 main 324 265 P_____________ AL051879 26.2125 -88.1504 TS 50 0 10 334
1879276N15282 1879 23 NA GM NOT_NAMED 1879-10-06 18:00:00 TS 26.7000 -88.4000 50 hurdat_atl main 265 196 O_____________ hurdat_atl AL051879 26.7000 -88.4000 TS 50 0 12 338
1879276N15282 1879 23 NA GM NOT_NAMED 1879-10-06 21:00:00 TS 27.3290 -88.6614 main 193 100 P_____________ AL051879 27.3290 -88.6614 TS 50 0 15 336
1879276N15282 1879 23 NA GM NOT_NAMED 1879-10-07 00:00:00 TS 28.1000 -89.0889 50 hurdat_atl main 100 34 O____________O hurdat_atl AL051879 28.0000 -88.9000 TS 50 0 28.9000 -90.6000 TS 50 15 342
1879276N15282 1879 23 NA GM NOT_NAMED 1879-10-07 03:00:00 TS 28.7018 -89.1684 main 34 0 P____________P AL051879 28.5328 -89.0573 TS 50 0 29.3631 -89.4814 TS 50 13 357
1879276N15282 1879 23 NA NA NOT_NAMED 1879-10-07 05:00:00 TS 29.2083 -89.1461 50 hurdat_atl main 0 9 O____________P hurdat_atl AL051879 29.0000 -89.2000 L TS 50 0 29.7566 -88.9508 TS 50 17 3
1879276N15282 1879 23 NA GM NOT_NAMED 1879-10-07 06:00:00 TS 29.5333 -89.1333 50 hurdat_atl main 24 0 O____________O hurdat_atl AL051879 29.3000 -89.3000 TS 50 0 30.0000 -88.8000 TS 50 19 351
1879276N15282 1879 23 NA NA NOT_NAMED 1879-10-07 09:00:00 TS 30.4723 -89.3785 main 0 0 P____________P AL051879 30.2426 -89.6483 TS 45 0 30.9318 -88.8389 TS 40 20 345
1879276N15282 1879 23 NA NA NOT_NAMED 1879-10-07 12:00:00 TS 31.4667 -89.7333 40 hurdat_atl main 0 0 O____________O hurdat_atl AL051879 31.2000 -90.0000 TS 40 0 32.0000 -89.2000 TD 30 20 345
1879276N15282 1879 23 NA NA NOT_NAMED 1879-10-07 15:00:00 TS 32.4174 -89.9892 main 0 0 P____________P AL051879 32.1149 -90.2752 TS 35 0 33.0225 -89.4172 TD 30 19 349
1879276N15282 1879 23 NA NA NOT_NAMED 1879-10-07 18:00:00 TS 33.3333 -90.1667 30 hurdat_atl main 0 O____________O hurdat_atl AL051879 33.0000 -90.5000 TD 30 -1 34.0000 -89.5000 TD 30 19 351

IBTrACS Databaseについて

本データベースは、米国NOAAが公開する1842年以降の世界の熱帯低気圧のベストトラックデータアーカイブInternational Best Track Archive for Climate Stewardship (IBTrACS)を、ウェブで閲覧しやすい形式に変換したものです。

最終更新日:2021-10-19